Time;durP1;ratioP1;P1;durP2;ratioP2;P2;SDS_P1;SDS_P2;PMS_P1;PMS_P2;Temp;Humidity;BMP_temperature;BMP_pressure;BME280_temperature;BME280_humidity;BME280_pressure;Samples;Min_cycle;Max_cycle;Signal;HPM_P1;HPM_P2
2021/08/03 00:00:48;;;;;;;;;5.50;4.50;;;;;;;;5032851;27;45445;-83
2021/08/03 00:03:14;;;;;;;;;5.00;5.00;;;;;;;;5030594;27;45814;-82
2021/08/03 00:05:44;;;;;;;;;8.25;6.00;;;;;;;;5026064;27;48947;-83
2021/08/03 00:08:14;;;;;;;;;5.00;5.00;;;;;;;;5035561;27;45827;-83
2021/08/03 00:10:41;;;;;;;;;7.75;6.00;;;;;;;;5028882;28;45476;-83
2021/08/03 00:13:06;;;;;;;;;4.75;4.75;;;;;;;;5031275;27;45444;-83
2021/08/03 00:15:31;;;;;;;;;5.00;5.00;;;;;;;;5015526;27;45583;-83
2021/08/03 00:17:57;;;;;;;;;7.67;6.00;;;;;;;;5034450;27;45391;-83
2021/08/03 00:20:23;;;;;;;;;5.75;4.25;;;;;;;;5035887;27;45530;-83
2021/08/03 00:22:48;;;;;;;;;7.00;7.00;;;;;;;;5035768;28;45367;-83
2021/08/03 00:25:14;;;;;;;;;7.75;5.50;;;;;;;;5017449;27;45365;-83
2021/08/03 00:27:41;;;;;;;;;7.00;5.33;;;;;;;;5013489;27;48137;-83
2021/08/03 00:30:06;;;;;;;;;4.50;4.50;;;;;;;;5035667;27;45660;-84
2021/08/03 00:32:32;;;;;;;;;8.25;6.00;;;;;;;;5033828;27;46141;-83
2021/08/03 00:34:57;;;;;;;;;6.33;6.33;;;;;;;;5018162;28;45537;-83
2021/08/03 00:37:22;;;;;;;;;8.50;6.25;;;;;;;;5014719;27;48442;-83
2021/08/03 00:39:47;;;;;;;;;7.67;6.00;;;;;;;;5028852;27;45599;-82
2021/08/03 00:42:12;;;;;;;;;6.00;6.00;;;;;;;;5032029;27;45393;-82
2021/08/03 00:44:38;;;;;;;;;6.00;5.00;;;;;;;;5029591;27;45685;-82
2021/08/03 00:47:04;;;;;;;;;5.67;5.67;;;;;;;;5024038;27;45523;-83
2021/08/03 00:49:29;;;;;;;;;7.75;5.00;;;;;;;;5028567;28;45887;-83
2021/08/03 00:51:54;;;;;;;;;8.00;5.67;;;;;;;;5030927;28;45619;-82
2021/08/03 00:54:19;;;;;;;;;6.00;4.67;;;;;;;;5013273;27;45881;-83
2021/08/03 00:56:45;;;;;;;;;6.00;5.00;;;;;;;;5032382;27;45486;-82
2021/08/03 00:59:11;;;;;;;;;6.00;5.33;;;;;;;;5034608;28;45576;-84
2021/08/03 01:01:36;;;;;;;;;6.25;4.75;;;;;;;;5034632;28;45622;-83
2021/08/03 01:04:02;;;;;;;;;6.00;6.00;;;;;;;;5029402;27;45526;-82
2021/08/03 01:06:34;;;;;;;;;5.00;5.00;;;;;;;;5029367;27;45975;-83
2021/08/03 01:09:08;;;;;;;;;6.25;6.25;;;;;;;;5037414;28;45743;-82
2021/08/03 01:11:40;;;;;;;;;8.25;6.75;;;;;;;;5028659;28;45440;-83
2021/08/03 01:14:24;;;;;;;;;5.25;4.75;;;;;;;;5017547;27;45469;-83
2021/08/03 01:16:52;;;;;;;;;7.75;4.00;;;;;;;;5025270;28;47208;-82
2021/08/03 01:19:37;;;;;;;;;11.00;5.50;;;;;;;;5032243;27;45442;-83
2021/08/03 01:22:11;;;;;;;;;5.00;4.50;;;;;;;;5027411;27;45401;-83
2021/08/03 01:24:42;;;;;;;;;5.00;5.00;;;;;;;;5023291;28;45425;-83
2021/08/03 01:27:13;;;;;;;;;3.50;3.50;;;;;;;;5034342;27;45663;-82
2021/08/03 01:29:41;;;;;;;;;10.50;5.25;;;;;;;;5016465;28;45657;-82
2021/08/03 01:32:08;;;;;;;;;5.00;5.00;;;;;;;;5033923;27;45498;-83
2021/08/03 01:34:36;;;;;;;;;5.00;4.75;;;;;;;;5045491;28;45453;-83
2021/08/03 01:37:02;;;;;;;;;4.00;4.00;;;;;;;;5033104;27;45583;-83
2021/08/03 01:39:31;;;;;;;;;5.50;4.50;;;;;;;;5031824;27;45329;-83
2021/08/03 01:41:58;;;;;;;;;5.00;5.00;;;;;;;;5035082;27;45590;-83
2021/08/03 01:44:24;;;;;;;;;3.75;3.75;;;;;;;;5035127;27;45366;-83
2021/08/03 01:46:50;;;;;;;;;4.25;4.25;;;;;;;;5034259;28;45575;-83
2021/08/03 01:49:17;;;;;;;;;4.25;4.25;;;;;;;;5016252;27;45713;-83
2021/08/03 01:51:44;;;;;;;;;4.75;4.75;;;;;;;;5010549;27;45286;-84
2021/08/03 01:54:10;;;;;;;;;4.25;4.25;;;;;;;;5034022;27;45496;-83
2021/08/03 01:56:36;;;;;;;;;6.00;4.75;;;;;;;;5032290;27;46251;-83
2021/08/03 01:59:02;;;;;;;;;8.25;6.50;;;;;;;;5031601;28;45697;-84
2021/08/03 02:01:28;;;;;;;;;6.33;5.00;;;;;;;;5029275;28;45389;-83
2021/08/03 02:03:53;;;;;;;;;6.00;5.50;;;;;;;;5029478;28;45437;-83
2021/08/03 02:06:21;;;;;;;;;11.00;5.00;;;;;;;;5029806;27;46559;-83
2021/08/03 02:08:48;;;;;;;;;6.75;6.25;;;;;;;;5011266;27;45983;-83
2021/08/03 02:11:14;;;;;;;;;8.75;5.50;;;;;;;;5013074;28;46230;-84
2021/08/03 02:13:39;;;;;;;;;6.75;5.75;;;;;;;;5013752;28;45587;-83
2021/08/03 02:16:05;;;;;;;;;5.75;4.25;;;;;;;;5031906;27;45799;-83
2021/08/03 02:18:30;;;;;;;;;5.50;5.50;;;;;;;;5031478;27;45587;-83
2021/08/03 02:20:55;;;;;;;;;4.33;4.33;;;;;;;;5033779;27;45414;-83
2021/08/03 02:23:20;;;;;;;;;5.67;5.67;;;;;;;;5037924;28;45673;-83
2021/08/03 02:25:46;;;;;;;;;7.00;5.67;;;;;;;;5022964;28;45722;-83
2021/08/03 02:28:11;;;;;;;;;8.00;6.00;;;;;;;;5031759;27;45643;-83
2021/08/03 02:30:37;;;;;;;;;7.00;5.75;;;;;;;;5029662;27;45524;-83
2021/08/03 02:33:14;;;;;;;;;8.25;5.50;;;;;;;;5031609;27;45410;-84
2021/08/03 02:35:42;;;;;;;;;5.75;4.50;;;;;;;;5038220;27;46593;-83
2021/08/03 02:38:10;;;;;;;;;7.00;7.00;;;;;;;;5011037;27;45990;-83
2021/08/03 02:40:36;;;;;;;;;11.25;9.25;;;;;;;;5027805;28;45566;-83
2021/08/03 02:43:02;;;;;;;;;7.50;7.50;;;;;;;;5013131;27;45998;-84
2021/08/03 02:45:27;;;;;;;;;6.75;6.00;;;;;;;;5031086;27;45541;-84
2021/08/03 02:47:56;;;;;;;;;12.50;9.00;;;;;;;;5035741;27;45681;-83
2021/08/03 02:50:23;;;;;;;;;8.75;8.00;;;;;;;;5031380;27;45527;-84
2021/08/03 02:52:51;;;;;;;;;9.75;8.50;;;;;;;;5027092;28;45533;-82
2021/08/03 02:55:19;;;;;;;;;9.50;8.25;;;;;;;;5026393;27;46606;-82
2021/08/03 02:57:46;;;;;;;;;9.75;7.00;;;;;;;;5032225;27;45388;-82
2021/08/03 03:00:13;;;;;;;;;10.75;7.25;;;;;;;;5030243;28;45292;-83
2021/08/03 03:02:40;;;;;;;;;10.25;9.00;;;;;;;;5033320;27;45812;-83
2021/08/03 03:05:09;;;;;;;;;10.50;9.00;;;;;;;;5053788;27;45576;-83
2021/08/03 03:07:40;;;;;;;;;9.75;9.00;;;;;;;;5026900;28;45803;-83
2021/08/03 03:10:07;;;;;;;;;8.50;6.75;;;;;;;;5030385;27;45539;-83
2021/08/03 03:12:34;;;;;;;;;11.50;8.75;;;;;;;;5011052;27;45689;-83
2021/08/03 03:15:02;;;;;;;;;11.25;8.00;;;;;;;;5046090;28;48111;-83
2021/08/03 03:17:31;;;;;;;;;8.00;8.00;;;;;;;;5018795;27;45712;-83
2021/08/03 03:19:57;;;;;;;;;7.00;7.00;;;;;;;;5040741;28;45420;-83
2021/08/03 03:22:22;;;;;;;;;13.00;8.50;;;;;;;;5034114;27;45481;-84
2021/08/03 03:24:48;;;;;;;;;9.75;8.00;;;;;;;;5038375;27;47555;-83
2021/08/03 03:27:15;;;;;;;;;7.75;6.00;;;;;;;;5036892;27;45464;-83
2021/08/03 03:29:41;;;;;;;;;8.00;7.25;;;;;;;;5051463;28;45723;-82
2021/08/03 03:32:06;;;;;;;;;11.25;8.50;;;;;;;;5037340;27;45421;-83
2021/08/03 03:34:32;;;;;;;;;9.50;7.50;;;;;;;;5034606;28;46591;-83
2021/08/03 03:36:58;;;;;;;;;10.75;8.00;;;;;;;;5033243;27;45552;-83
2021/08/03 03:39:24;;;;;;;;;6.75;6.75;;;;;;;;5035607;27;45267;-83
2021/08/03 03:41:51;;;;;;;;;8.50;7.25;;;;;;;;5035905;27;45644;-83
2021/08/03 03:44:17;;;;;;;;;6.75;6.50;;;;;;;;5036747;27;45509;-84
2021/08/03 03:46:46;;;;;;;;;6.50;6.50;;;;;;;;5026054;28;45469;-83
2021/08/03 03:49:13;;;;;;;;;5.25;5.25;;;;;;;;5034468;27;45433;-83
2021/08/03 03:51:43;;;;;;;;;9.25;8.00;;;;;;;;5031941;27;45551;-82
2021/08/03 03:54:10;;;;;;;;;8.00;6.00;;;;;;;;5050902;28;47395;-82
2021/08/03 03:56:44;;;;;;;;;11.00;7.75;;;;;;;;5038455;27;45370;-82
2021/08/03 03:59:11;;;;;;;;;8.00;6.00;;;;;;;;5029389;28;45456;-82
2021/08/03 04:01:37;;;;;;;;;5.25;5.25;;;;;;;;5048312;27;45604;-82
2021/08/03 04:04:04;;;;;;;;;9.75;6.00;;;;;;;;5031903;28;45487;-82
2021/08/03 04:06:31;;;;;;;;;7.00;6.00;;;;;;;;5033370;27;46152;-82
2021/08/03 04:08:57;;;;;;;;;8.00;5.00;;;;;;;;5051813;28;45759;-82
2021/08/03 04:11:22;;;;;;;;;6.67;5.33;;;;;;;;5035357;27;45536;-83
2021/08/03 04:13:49;;;;;;;;;10.00;5.67;;;;;;;;5044990;28;48117;-82
2021/08/03 04:16:14;;;;;;;;;6.75;4.50;;;;;;;;5025104;27;45494;-81
2021/08/03 04:18:40;;;;;;;;;7.00;6.00;;;;;;;;5017421;27;45735;-82
2021/08/03 04:21:05;;;;;;;;;5.75;5.75;;;;;;;;5035369;27;45528;-81
2021/08/03 04:23:30;;;;;;;;;8.50;5.50;;;;;;;;5034264;27;46227;-83
2021/08/03 04:25:56;;;;;;;;;6.00;4.00;;;;;;;;5030377;28;45421;-82
2021/08/03 04:28:21;;;;;;;;;5.25;5.25;;;;;;;;5044208;28;45490;-82
2021/08/03 04:30:46;;;;;;;;;6.00;6.00;;;;;;;;5042595;27;45590;-83
2021/08/03 04:33:12;;;;;;;;;5.00;5.00;;;;;;;;5050950;28;47204;-82
2021/08/03 04:35:37;;;;;;;;;5.00;5.00;;;;;;;;5032739;27;45550;-82
2021/08/03 04:38:02;;;;;;;;;4.50;4.00;;;;;;;;5017241;27;45746;-82
2021/08/03 04:40:28;;;;;;;;;5.33;4.00;;;;;;;;5019314;27;45233;-82
2021/08/03 04:42:53;;;;;;;;;5.00;5.00;;;;;;;;5011775;27;47006;-81
2021/08/03 04:45:18;;;;;;;;;5.50;4.00;;;;;;;;5031380;27;45263;-82
2021/08/03 04:47:45;;;;;;;;;4.75;4.00;;;;;;;;5016992;27;45462;-83
2021/08/03 04:50:12;;;;;;;;;3.25;3.25;;;;;;;;5050468;27;45593;-81
2021/08/03 04:52:37;;;;;;;;;3.75;3.75;;;;;;;;5022128;28;46057;-82
2021/08/03 04:55:02;;;;;;;;;7.33;5.33;;;;;;;;5043287;28;45739;-81
2021/08/03 04:57:28;;;;;;;;;5.00;4.00;;;;;;;;5031374;27;45368;-82
2021/08/03 04:59:53;;;;;;;;;5.33;3.67;;;;;;;;5019647;28;45428;-82
2021/08/03 05:02:18;;;;;;;;;4.00;3.33;;;;;;;;5034042;28;46720;-82
2021/08/03 05:04:43;;;;;;;;;5.33;4.00;;;;;;;;5032691;28;45504;-81
2021/08/03 05:07:11;;;;;;;;;3.00;3.00;;;;;;;;5017349;27;45524;-82
2021/08/03 05:09:36;;;;;;;;;6.00;4.00;;;;;;;;5031272;27;45337;-83
2021/08/03 05:12:02;;;;;;;;;5.75;3.00;;;;;;;;5017828;27;47015;-84
2021/08/03 05:14:27;;;;;;;;;6.00;3.00;;;;;;;;5029790;27;45530;-81
2021/08/03 05:16:52;;;;;;;;;3.00;3.00;;;;;;;;5015076;28;45738;-84
2021/08/03 05:19:17;;;;;;;;;2.50;2.50;;;;;;;;5047889;28;45894;-84
2021/08/03 05:21:43;;;;;;;;;2.00;2.00;;;;;;;;5028506;27;45921;-83
2021/08/03 05:24:08;;;;;;;;;4.33;2.33;;;;;;;;5014620;27;45472;-83
2021/08/03 05:26:33;;;;;;;;;3.00;3.00;;;;;;;;5033304;27;45742;-83
2021/08/03 05:28:58;;;;;;;;;2.00;2.00;;;;;;;;5033455;28;45508;-83
2021/08/03 05:31:24;;;;;;;;;1.00;1.00;;;;;;;;5048108;28;48120;-83
2021/08/03 05:33:49;;;;;;;;;1.00;1.00;;;;;;;;5016438;27;45506;-83
2021/08/03 05:36:14;;;;;;;;;1.00;1.00;;;;;;;;5032140;27;45704;-83
2021/08/03 05:38:40;;;;;;;;;1.00;1.00;;;;;;;;5049790;28;45713;-83
2021/08/03 05:41:05;;;;;;;;;1.00;1.00;;;;;;;;5029958;27;45602;-83
2021/08/03 05:43:30;;;;;;;;;2.00;2.00;;;;;;;;5028337;28;45375;-83
2021/08/03 05:45:56;;;;;;;;;1.00;1.00;;;;;;;;5011244;27;45562;-83
2021/08/03 05:48:21;;;;;;;;;2.33;1.00;;;;;;;;5034143;27;45499;-83
2021/08/03 05:50:46;;;;;;;;;1.67;1.00;;;;;;;;5029909;27;45527;-83
2021/08/03 05:53:11;;;;;;;;;1.00;1.00;;;;;;;;5047635;27;45754;-83
2021/08/03 05:55:37;;;;;;;;;1.00;1.00;;;;;;;;5034378;28;45337;-83
2021/08/03 05:58:02;;;;;;;;;3.00;1.00;;;;;;;;5029429;27;45571;-84
2021/08/03 06:00:27;;;;;;;;;1.67;1.00;;;;;;;;5027712;28;45654;-83
2021/08/03 06:02:52;;;;;;;;;0.25;0.25;;;;;;;;5032759;28;45425;-82
2021/08/03 06:05:18;;;;;;;;;1.00;1.00;;;;;;;;5018684;27;45632;-83
2021/08/03 06:07:48;;;;;;;;;1.00;1.00;;;;;;;;5031316;28;45292;-82
2021/08/03 06:10:14;;;;;;;;;1.25;1.00;;;;;;;;5027541;27;46425;-84
2021/08/03 06:12:43;;;;;;;;;1.00;1.00;;;;;;;;5029238;27;45374;-83
2021/08/03 06:15:09;;;;;;;;;1.50;1.50;;;;;;;;5012545;27;45474;-76
2021/08/03 06:17:36;;;;;;;;;1.25;1.00;;;;;;;;5032082;27;45391;-78
2021/08/03 06:20:02;;;;;;;;;3.75;2.50;;;;;;;;5030752;27;46886;-78
2021/08/03 06:22:28;;;;;;;;;1.00;1.00;;;;;;;;5026746;28;46012;-79
2021/08/03 06:24:53;;;;;;;;;2.00;1.50;;;;;;;;5032772;27;45621;-76
2021/08/03 06:27:19;;;;;;;;;1.50;1.50;;;;;;;;5089949;27;45516;-76
2021/08/03 06:29:45;;;;;;;;;2.00;2.00;;;;;;;;5032002;27;45815;-76
2021/08/03 06:32:11;;;;;;;;;1.00;1.00;;;;;;;;5032352;28;45606;-77
2021/08/03 06:34:37;;;;;;;;;2.00;0.75;;;;;;;;5030225;28;45525;-77
2021/08/03 06:37:03;;;;;;;;;4.25;1.25;;;;;;;;5020639;27;45443;-78
2021/08/03 06:39:28;;;;;;;;;1.00;1.00;;;;;;;;5012337;27;47172;-78
2021/08/03 06:42:01;;;;;;;;;1.00;1.00;;;;;;;;5032865;27;45406;-78
2021/08/03 06:44:33;;;;;;;;;1.00;1.00;;;;;;;;5032568;27;45753;-77
2021/08/03 06:46:58;;;;;;;;;2.50;1.00;;;;;;;;5031091;28;45646;-79
2021/08/03 06:49:26;;;;;;;;;2.50;1.00;;;;;;;;5030359;27;45813;-78
2021/08/03 06:51:54;;;;;;;;;2.00;2.00;;;;;;;;5012629;27;45505;-78
2021/08/03 06:54:21;;;;;;;;;2.75;2.00;;;;;;;;5035996;27;45320;-79
2021/08/03 06:56:50;;;;;;;;;2.00;2.00;;;;;;;;5034834;27;45439;-77
2021/08/03 06:59:23;;;;;;;;;2.00;2.00;;;;;;;;5036354;28;46107;-76
2021/08/03 07:02:06;;;;;;;;;3.00;3.00;;;;;;;;5020297;27;45433;-78
2021/08/03 07:04:32;;;;;;;;;2.00;2.00;;;;;;;;5046830;27;45358;-76
2021/08/03 07:06:59;;;;;;;;;3.00;3.00;;;;;;;;5032324;27;45450;-78
2021/08/03 07:09:26;;;;;;;;;4.00;2.00;;;;;;;;5021236;27;46402;-77
2021/08/03 07:11:53;;;;;;;;;4.00;4.00;;;;;;;;5033407;27;45430;-78
2021/08/03 07:14:19;;;;;;;;;4.00;3.00;;;;;;;;5054381;27;45556;-78
2021/08/03 07:16:45;;;;;;;;;5.25;3.25;;;;;;;;5030257;28;45819;-76
2021/08/03 07:19:11;;;;;;;;;5.50;3.00;;;;;;;;5030490;27;46105;-78
2021/08/03 07:21:37;;;;;;;;;3.00;2.25;;;;;;;;5074672;27;45617;-77
2021/08/03 07:24:03;;;;;;;;;4.50;3.00;;;;;;;;5037229;28;45289;-78
2021/08/03 07:26:30;;;;;;;;;3.00;3.00;;;;;;;;5033355;27;45301;-78
2021/08/03 07:28:55;;;;;;;;;4.50;3.00;;;;;;;;5048550;28;46246;-77
2021/08/03 07:31:20;;;;;;;;;3.00;3.00;;;;;;;;5033156;27;45371;-76
2021/08/03 07:33:45;;;;;;;;;2.67;2.67;;;;;;;;5028424;27;45286;-76
2021/08/03 07:36:13;;;;;;;;;4.33;4.00;;;;;;;;5036234;27;45422;-76
2021/08/03 07:38:38;;;;;;;;;5.00;2.75;;;;;;;;5032769;27;46255;-77
2021/08/03 07:41:03;;;;;;;;;3.00;3.00;;;;;;;;5024665;27;45518;-76
2021/08/03 07:43:28;;;;;;;;;4.00;4.00;;;;;;;;5011869;27;45460;-78
2021/08/03 07:45:54;;;;;;;;;3.00;3.00;;;;;;;;5042611;27;45495;-81
2021/08/03 07:48:19;;;;;;;;;3.00;3.00;;;;;;;;5038551;27;45355;-80
2021/08/03 07:50:44;;;;;;;;;7.00;5.00;;;;;;;;5035459;27;45527;-80
2021/08/03 07:53:09;;;;;;;;;3.67;3.67;;;;;;;;5034220;27;45435;-80
2021/08/03 07:55:35;;;;;;;;;5.00;3.67;;;;;;;;5033145;28;45336;-78
2021/08/03 07:58:00;;;;;;;;;4.00;3.00;;;;;;;;5030370;27;45279;-78
2021/08/03 08:00:25;;;;;;;;;3.00;3.00;;;;;;;;5016133;28;45278;-76
2021/08/03 08:02:50;;;;;;;;;5.00;4.00;;;;;;;;5034240;28;45703;-77
2021/08/03 08:05:16;;;;;;;;;7.00;4.00;;;;;;;;5032566;27;45476;-75
2021/08/03 08:07:41;;;;;;;;;7.25;4.50;;;;;;;;5032581;28;45360;-76
2021/08/03 08:10:06;;;;;;;;;5.00;5.00;;;;;;;;5028547;27;45290;-76
2021/08/03 08:12:31;;;;;;;;;5.25;4.00;;;;;;;;5029256;27;45282;-78
2021/08/03 08:14:57;;;;;;;;;5.50;3.25;;;;;;;;5029579;27;46487;-76
2021/08/03 08:17:22;;;;;;;;;3.50;3.50;;;;;;;;5033480;28;45479;-78
2021/08/03 08:19:47;;;;;;;;;4.33;4.33;;;;;;;;5047622;28;45559;-77
2021/08/03 08:22:12;;;;;;;;;5.33;4.00;;;;;;;;5016037;27;45410;-77
2021/08/03 08:24:38;;;;;;;;;4.33;3.00;;;;;;;;5066781;27;45689;-79
2021/08/03 08:27:03;;;;;;;;;6.00;5.00;;;;;;;;5034911;27;46094;-77
2021/08/03 08:29:28;;;;;;;;;8.33;4.00;;;;;;;;5047762;28;46139;-78
2021/08/03 08:31:53;;;;;;;;;5.00;4.33;;;;;;;;5032633;28;45739;-76
2021/08/03 08:34:19;;;;;;;;;4.00;3.00;;;;;;;;5032664;27;45330;-76
2021/08/03 08:36:44;;;;;;;;;2.25;2.25;;;;;;;;5011972;27;47980;-76
2021/08/03 08:39:09;;;;;;;;;3.25;3.00;;;;;;;;5035480;27;45680;-76
2021/08/03 08:41:35;;;;;;;;;4.00;4.00;;;;;;;;5017679;27;45340;-75
2021/08/03 08:44:02;;;;;;;;;3.00;3.00;;;;;;;;5032594;27;45385;-76
2021/08/03 08:46:31;;;;;;;;;3.50;3.25;;;;;;;;5045316;27;47180;-76
2021/08/03 08:48:56;;;;;;;;;3.75;3.75;;;;;;;;5026213;27;45706;-75
2021/08/03 08:51:21;;;;;;;;;2.00;2.00;;;;;;;;5034660;27;45683;-76
2021/08/03 08:53:49;;;;;;;;;2.50;2.50;;;;;;;;5015082;27;45408;-77
2021/08/03 08:56:14;;;;;;;;;3.75;2.00;;;;;;;;5032686;27;47124;-76
2021/08/03 08:58:43;;;;;;;;;3.00;3.00;;;;;;;;5017277;28;45516;-76
2021/08/03 09:01:08;;;;;;;;;3.25;3.25;;;;;;;;5030663;28;45494;-76
2021/08/03 09:03:33;;;;;;;;;2.67;1.00;;;;;;;;5032617;28;45425;-76
2021/08/03 09:06:00;;;;;;;;;3.00;3.00;;;;;;;;5027763;27;48799;-76
2021/08/03 09:08:32;;;;;;;;;3.75;3.75;;;;;;;;5017325;27;45666;-75
2021/08/03 09:11:04;;;;;;;;;3.75;3.00;;;;;;;;5032702;28;45659;-76
2021/08/03 09:13:29;;;;;;;;;4.00;3.00;;;;;;;;5021875;28;45493;-76
2021/08/03 09:15:56;;;;;;;;;6.00;2.33;;;;;;;;5028905;27;45503;-77
2021/08/03 09:18:28;;;;;;;;;4.50;4.25;;;;;;;;5034179;27;45629;-78
2021/08/03 09:20:54;;;;;;;;;6.00;4.00;;;;;;;;5035225;27;45366;-76
2021/08/03 09:23:19;;;;;;;;;3.00;3.00;;;;;;;;5048786;27;45612;-76
2021/08/03 09:25:52;;;;;;;;;4.25;3.00;;;;;;;;5032224;28;45980;-77
2021/08/03 09:28:17;;;;;;;;;3.00;3.00;;;;;;;;5031477;27;45503;-77
2021/08/03 09:30:42;;;;;;;;;3.00;3.00;;;;;;;;5011860;28;45473;-76
2021/08/03 09:33:08;;;;;;;;;7.00;3.00;;;;;;;;5034741;28;45314;-76
2021/08/03 09:35:33;;;;;;;;;4.50;4.00;;;;;;;;5016061;27;45243;-76
2021/08/03 09:37:59;;;;;;;;;5.00;3.50;;;;;;;;5030766;28;45362;-76
2021/08/03 09:40:30;;;;;;;;;4.50;3.00;;;;;;;;5031210;27;45619;-76
2021/08/03 09:42:59;;;;;;;;;4.50;3.00;;;;;;;;5013360;27;45446;-76
2021/08/03 09:45:25;;;;;;;;;6.00;5.00;;;;;;;;5033658;27;46237;-74
2021/08/03 09:47:50;;;;;;;;;4.25;4.25;;;;;;;;5034196;27;45508;-76
2021/08/03 09:50:17;;;;;;;;;3.50;3.50;;;;;;;;5047329;27;45636;-75
2021/08/03 09:52:43;;;;;;;;;4.25;4.25;;;;;;;;5049544;28;45666;-75
2021/08/03 09:55:14;;;;;;;;;5.50;4.25;;;;;;;;5025328;27;46343;-76
2021/08/03 09:57:40;;;;;;;;;6.00;3.25;;;;;;;;5024087;27;45547;-75
2021/08/03 10:00:24;;;;;;;;;3.00;3.00;;;;;;;;5035521;28;45591;-75
2021/08/03 10:02:50;;;;;;;;;3.25;3.25;;;;;;;;5032782;28;45445;-76
2021/08/03 10:05:15;;;;;;;;;4.75;3.50;;;;;;;;5031892;27;46102;-76
2021/08/03 10:07:40;;;;;;;;;4.75;3.00;;;;;;;;5031662;28;45477;-76
2021/08/03 10:10:07;;;;;;;;;3.00;3.00;;;;;;;;5027545;27;45404;-75
2021/08/03 10:12:32;;;;;;;;;4.50;4.00;;;;;;;;5031568;27;45507;-78
2021/08/03 10:14:57;;;;;;;;;6.00;4.00;;;;;;;;5032961;27;45448;-76
2021/08/03 10:17:23;;;;;;;;;3.00;3.00;;;;;;;;5031374;27;45611;-75
2021/08/03 10:19:49;;;;;;;;;3.33;3.33;;;;;;;;5031095;28;45535;-76
2021/08/03 10:22:21;;;;;;;;;3.00;3.00;;;;;;;;5096195;27;45548;-76
2021/08/03 10:25:12;;;;;;;;;3.25;2.50;;;;;;;;5029912;27;48119;-76
2021/08/03 10:27:49;;;;;;;;;4.00;3.00;;;;;;;;5038340;27;45488;-76
2021/08/03 10:30:29;;;;;;;;;4.00;4.00;;;;;;;;5037541;27;45292;-76
2021/08/03 10:32:59;;;;;;;;;2.00;2.00;;;;;;;;5017530;27;45366;-77
2021/08/03 10:35:46;;;;;;;;;4.75;4.75;;;;;;;;5033697;27;46021;-77
2021/08/03 10:38:12;;;;;;;;;4.75;4.50;;;;;;;;5030749;27;45984;-77
2021/08/03 10:40:44;;;;;;;;;3.25;3.25;;;;;;;;5020262;27;45591;-76
2021/08/03 10:43:16;;;;;;;;;3.50;3.50;;;;;;;;5014113;27;45965;-76
2021/08/03 10:45:41;;;;;;;;;3.00;3.00;;;;;;;;5035253;27;47047;-76
2021/08/03 10:48:08;;;;;;;;;3.25;3.25;;;;;;;;5052082;27;45761;-77
2021/08/03 10:50:34;;;;;;;;;7.25;6.25;;;;;;;;5030691;27;45386;-77
2021/08/03 10:53:02;;;;;;;;;8.00;6.50;;;;;;;;5025171;28;45546;-77
2021/08/03 10:55:28;;;;;;;;;3.75;3.50;;;;;;;;5029466;28;46033;-76
2021/08/03 10:58:08;;;;;;;;;6.67;4.33;;;;;;;;5077986;27;45715;-77
2021/08/03 11:00:49;;;;;;;;;5.00;4.00;;;;;;;;5024239;27;45553;-77
2021/08/03 11:03:30;;;;;;;;;3.50;3.50;;;;;;;;5029971;27;45848;-77
2021/08/03 11:05:55;;;;;;;;;3.75;3.75;;;;;;;;5027480;27;45481;-76
2021/08/03 11:08:29;;;;;;;;;4.75;4.75;;;;;;;;5021987;27;45520;-77
2021/08/03 11:10:56;;;;;;;;;3.00;1.50;;;;;;;;5028604;28;46393;-77
2021/08/03 11:13:41;;;;;;;;;5.00;3.00;;;;;;;;5022553;27;49221;-79
2021/08/03 11:16:26;;;;;;;;;4.00;2.75;;;;;;;;5026657;27;45610;-77
2021/08/03 11:18:55;;;;;;;;;3.00;2.00;;;;;;;;5000812;27;45580;-79
2021/08/03 11:21:21;;;;;;;;;4.50;3.00;;;;;;;;5045273;27;45603;-80
2021/08/03 11:23:55;;;;;;;;;5.25;2.50;;;;;;;;5023901;27;45401;-80
2021/08/03 11:26:20;;;;;;;;;3.25;3.25;;;;;;;;5022078;27;45438;-80
2021/08/03 11:28:57;;;;;;;;;3.50;3.25;;;;;;;;5011880;28;45481;-81
2021/08/03 11:31:22;;;;;;;;;4.00;3.00;;;;;;;;5026286;27;45508;-81
2021/08/03 11:33:54;;;;;;;;;3.75;3.25;;;;;;;;5026781;27;45520;-80
2021/08/03 11:36:19;;;;;;;;;5.00;2.50;;;;;;;;5028664;27;48507;-80
2021/08/03 11:38:44;;;;;;;;;3.00;3.00;;;;;;;;5028130;27;45563;-80
2021/08/03 11:41:10;;;;;;;;;3.67;3.00;;;;;;;;5014542;27;45448;-79
2021/08/03 11:43:35;;;;;;;;;4.00;3.75;;;;;;;;5042865;28;45485;-80
2021/08/03 11:46:00;;;;;;;;;4.00;4.00;;;;;;;;5033452;27;45971;-81
2021/08/03 11:48:28;;;;;;;;;3.00;3.00;;;;;;;;5016584;27;45498;-81
2021/08/03 11:50:53;;;;;;;;;2.25;2.25;;;;;;;;5017888;27;45597;-81
2021/08/03 11:53:19;;;;;;;;;6.33;3.00;;;;;;;;5020643;27;45558;-83
2021/08/03 11:55:46;;;;;;;;;4.00;4.00;;;;;;;;5005722;28;47544;-83
2021/08/03 11:58:16;;;;;;;;;2.75;2.75;;;;;;;;5044818;28;45765;-82
2021/08/03 12:00:42;;;;;;;;;6.00;4.00;;;;;;;;5044181;28;45503;-82
2021/08/03 12:03:07;;;;;;;;;4.00;3.33;;;;;;;;5021843;27;45579;-83
2021/08/03 12:05:33;;;;;;;;;4.00;4.00;;;;;;;;5022120;27;45527;-81
2021/08/03 12:08:09;;;;;;;;;5.00;4.50;;;;;;;;5037829;27;45819;-84
2021/08/03 12:10:36;;;;;;;;;5.00;3.50;;;;;;;;5035496;28;45620;-82
2021/08/03 12:13:03;;;;;;;;;4.25;3.50;;;;;;;;5024805;27;45717;-82
2021/08/03 12:15:28;;;;;;;;;4.25;3.25;;;;;;;;5027417;27;46561;-81
2021/08/03 12:18:01;;;;;;;;;4.25;3.00;;;;;;;;5028562;27;45447;-82
2021/08/03 12:20:34;;;;;;;;;6.00;4.50;;;;;;;;5005720;27;45350;-82
2021/08/03 12:23:18;;;;;;;;;4.25;3.25;;;;;;;;5041714;28;45668;-81
2021/08/03 12:25:46;;;;;;;;;6.25;4.00;;;;;;;;5021346;28;45668;-82
2021/08/03 12:28:30;;;;;;;;;2.00;2.00;;;;;;;;5022188;28;45534;-82
2021/08/03 12:30:55;;;;;;;;;3.00;3.00;;;;;;;;5007707;27;46205;-80
2021/08/03 12:33:31;;;;;;;;;4.50;2.25;;;;;;;;5002683;27;45789;-81
2021/08/03 12:36:00;;;;;;;;;3.50;3.50;;;;;;;;5023193;27;46467;-82
2021/08/03 12:38:25;;;;;;;;;3.00;3.00;;;;;;;;5010008;27;46092;-81
2021/08/03 12:40:50;;;;;;;;;3.00;3.00;;;;;;;;5024445;28;45899;-80
2021/08/03 12:43:22;;;;;;;;;5.33;4.00;;;;;;;;5022503;27;45504;-83
2021/08/03 12:45:56;;;;;;;;;3.00;3.00;;;;;;;;5023552;27;45631;-83
2021/08/03 12:48:21;;;;;;;;;2.50;2.50;;;;;;;;5028365;27;45991;-81
2021/08/03 12:50:48;;;;;;;;;3.00;3.00;;;;;;;;5035240;28;45786;-80
2021/08/03 12:53:22;;;;;;;;;3.25;3.25;;;;;;;;5016572;27;45783;-81
2021/08/03 12:56:06;;;;;;;;;3.00;3.00;;;;;;;;5024548;27;52397;-82
2021/08/03 12:58:40;;;;;;;;;3.00;3.00;;;;;;;;5019773;28;45511;-81
2021/08/03 13:01:13;;;;;;;;;4.00;4.00;;;;;;;;5025260;27;46728;-82
2021/08/03 13:03:38;;;;;;;;;3.00;3.00;;;;;;;;5003583;27;45737;-81
2021/08/03 13:06:04;;;;;;;;;3.00;3.00;;;;;;;;5021360;27;45987;-83
2021/08/03 13:08:30;;;;;;;;;3.25;2.00;;;;;;;;5031383;27;45698;-82
2021/08/03 13:10:55;;;;;;;;;3.33;3.33;;;;;;;;5020141;28;45540;-81
2021/08/03 13:13:23;;;;;;;;;6.50;4.00;;;;;;;;5034177;28;45531;-78
2021/08/03 13:15:49;;;;;;;;;3.00;3.00;;;;;;;;5000258;27;45716;-81
2021/08/03 13:18:14;;;;;;;;;4.25;4.25;;;;;;;;5037558;28;45480;-83
2021/08/03 13:20:39;;;;;;;;;5.25;5.25;;;;;;;;5021989;27;45433;-81
2021/08/03 13:23:05;;;;;;;;;5.00;3.33;;;;;;;;5021326;27;45498;-81
2021/08/03 13:25:30;;;;;;;;;4.00;3.00;;;;;;;;5024370;28;45941;-81
2021/08/03 13:27:55;;;;;;;;;3.00;2.00;;;;;;;;5041260;28;45447;-80
2021/08/03 13:30:20;;;;;;;;;3.67;2.67;;;;;;;;5044472;28;45485;-81
2021/08/03 13:32:45;;;;;;;;;5.00;4.00;;;;;;;;5026123;27;45538;-82
2021/08/03 13:35:11;;;;;;;;;5.67;4.00;;;;;;;;5025166;28;46006;-81
2021/08/03 13:37:36;;;;;;;;;5.00;4.75;;;;;;;;5024111;28;52175;-82
2021/08/03 13:40:02;;;;;;;;;5.75;5.75;;;;;;;;5024231;27;45420;-81
2021/08/03 13:42:27;;;;;;;;;5.25;5.00;;;;;;;;5000856;27;47408;-80
2021/08/03 13:44:52;;;;;;;;;7.00;4.67;;;;;;;;5042036;28;48478;-79
2021/08/03 13:47:18;;;;;;;;;12.33;9.67;;;;;;;;5025112;27;45469;-85
2021/08/03 13:49:44;;;;;;;;;5.50;4.00;;;;;;;;5026777;27;45305;-83
2021/08/03 13:52:09;;;;;;;;;4.00;4.00;;;;;;;;5027751;27;45461;-83
2021/08/03 13:54:35;;;;;;;;;5.00;4.00;;;;;;;;5028152;27;46669;-83
2021/08/03 13:57:01;;;;;;;;;3.00;3.00;;;;;;;;5032971;27;45662;-79
2021/08/03 13:59:26;;;;;;;;;5.00;3.00;;;;;;;;5012866;27;45538;-80
2021/08/03 14:01:51;;;;;;;;;3.25;3.25;;;;;;;;5017283;27;45417;-83
2021/08/03 14:04:16;;;;;;;;;4.00;4.00;;;;;;;;5033708;28;45917;-80
2021/08/03 14:06:42;;;;;;;;;3.25;3.00;;;;;;;;5004047;27;45879;-83
2021/08/03 14:09:07;;;;;;;;;3.75;3.75;;;;;;;;5023461;27;45509;-80
2021/08/03 14:11:32;;;;;;;;;5.00;3.50;;;;;;;;5022571;27;46209;-79
2021/08/03 14:13:57;;;;;;;;;5.00;3.00;;;;;;;;5020960;27;45543;-79
2021/08/03 14:16:23;;;;;;;;;2.50;2.50;;;;;;;;5019068;27;45434;-80
2021/08/03 14:18:48;;;;;;;;;3.00;3.00;;;;;;;;5018138;27;47204;-80
2021/08/03 14:21:13;;;;;;;;;5.25;3.75;;;;;;;;5022343;27;45493;-79
2021/08/03 14:23:38;;;;;;;;;3.00;3.00;;;;;;;;5018773;27;45939;-81
2021/08/03 14:26:04;;;;;;;;;2.33;2.33;;;;;;;;5033307;27;45459;-80
2021/08/03 14:28:29;;;;;;;;;5.50;3.00;;;;;;;;5009765;27;45430;-80
2021/08/03 14:30:54;;;;;;;;;5.00;3.00;;;;;;;;5040700;27;45383;-80
2021/08/03 14:33:20;;;;;;;;;3.33;3.00;;;;;;;;5042579;28;47916;-82
2021/08/03 14:35:45;;;;;;;;;2.75;2.75;;;;;;;;5027555;27;45477;-80
2021/08/03 14:38:10;;;;;;;;;3.50;3.00;;;;;;;;5037416;27;45452;-80
2021/08/03 14:40:36;;;;;;;;;2.00;2.00;;;;;;;;5025745;28;45481;-79
2021/08/03 14:43:01;;;;;;;;;3.50;3.25;;;;;;;;5039861;28;48287;-80